sensor_id;sensor_type;location;lat;lon;timestamp;pressure;altitude;pressure_sealevel;temperature;humidity
74327;BME280;62745;51.060;13.786;2022-10-13T00:00:55;100925.41;;;7.83;90.23
74327;BME280;62745;51.060;13.786;2022-10-13T00:03:20;100922.38;;;7.78;90.58
74327;BME280;62745;51.060;13.786;2022-10-13T00:05:48;100923.41;;;7.85;90.15
74327;BME280;62745;51.060;13.786;2022-10-13T00:08:16;100920.41;;;7.80;90.58
74327;BME280;62745;51.060;13.786;2022-10-13T00:10:46;100918.56;;;7.81;91.05
74327;BME280;62745;51.060;13.786;2022-10-13T00:13:13;100914.81;;;7.92;91.35
74327;BME280;62745;51.060;13.786;2022-10-13T00:15:40;100917.81;;;7.97;90.64
74327;BME280;62745;51.060;13.786;2022-10-13T00:18:07;100917.91;;;7.79;90.83
74327;BME280;62745;51.060;13.786;2022-10-13T00:20:33;100915.94;;;7.89;90.55
74327;BME280;62745;51.060;13.786;2022-10-13T00:22:58;100908.94;;;7.80;90.69
74327;BME280;62745;51.060;13.786;2022-10-13T00:25:23;100913.50;;;7.70;90.96
74327;BME280;62745;51.060;13.786;2022-10-13T00:27:49;100907.84;;;7.65;91.86
74327;BME280;62745;51.060;13.786;2022-10-13T00:30:14;100915.19;;;7.71;91.97
74327;BME280;62745;51.060;13.786;2022-10-13T00:32:39;100908.28;;;7.86;91.10
74327;BME280;62745;51.060;13.786;2022-10-13T00:35:05;100916.38;;;7.76;91.25
74327;BME280;62745;51.060;13.786;2022-10-13T00:37:30;100918.31;;;7.66;91.51
74327;BME280;62745;51.060;13.786;2022-10-13T00:39:55;100915.72;;;7.74;90.69
74327;BME280;62745;51.060;13.786;2022-10-13T00:42:21;100916.47;;;7.93;90.78
74327;BME280;62745;51.060;13.786;2022-10-13T00:44:57;100923.31;;;7.69;91.16
74327;BME280;62745;51.060;13.786;2022-10-13T00:47:25;100917.53;;;7.74;91.36
74327;BME280;62745;51.060;13.786;2022-10-13T00:49:51;100919.47;;;7.64;90.91
74327;BME280;62745;51.060;13.786;2022-10-13T00:52:19;100905.44;;;7.53;91.43
74327;BME280;62745;51.060;13.786;2022-10-13T00:54:45;100907.41;;;7.51;91.53
74327;BME280;62745;51.060;13.786;2022-10-13T00:57:11;100902.66;;;7.37;91.66
74327;BME280;62745;51.060;13.786;2022-10-13T00:59:37;100911.63;;;7.36;92.37
74327;BME280;62745;51.060;13.786;2022-10-13T01:02:04;100907.47;;;7.34;92.34
74327;BME280;62745;51.060;13.786;2022-10-13T01:04:36;100904.97;;;7.32;92.62
74327;BME280;62745;51.060;13.786;2022-10-13T01:07:03;100903.75;;;7.27;93.55
74327;BME280;62745;51.060;13.786;2022-10-13T01:09:29;100903.44;;;7.30;93.09
74327;BME280;62745;51.060;13.786;2022-10-13T01:12:37;100900.28;;;7.26;92.89
74327;BME280;62745;51.060;13.786;2022-10-13T01:15:17;100902.28;;;7.32;91.97
74327;BME280;62745;51.060;13.786;2022-10-13T01:26:16;100895.03;;;7.60;91.70
74327;BME280;62745;51.060;13.786;2022-10-13T01:29:01;100888.66;;;7.53;90.60
74327;BME280;62745;51.060;13.786;2022-10-13T01:31:49;100887.47;;;7.47;91.78
74327;BME280;62745;51.060;13.786;2022-10-13T01:34:25;100886.31;;;7.50;91.96
74327;BME280;62745;51.060;13.786;2022-10-13T01:37:20;100894.63;;;7.55;91.81
74327;BME280;62745;51.060;13.786;2022-10-13T01:39:58;100891.31;;;7.79;91.21
74327;BME280;62745;51.060;13.786;2022-10-13T01:42:34;100888.28;;;7.74;90.81
74327;BME280;62745;51.060;13.786;2022-10-13T01:45:02;100880.81;;;7.77;90.72
74327;BME280;62745;51.060;13.786;2022-10-13T01:47:31;100876.66;;;7.75;90.31
74327;BME280;62745;51.060;13.786;2022-10-13T01:49:58;100882.97;;;7.74;90.63
74327;BME280;62745;51.060;13.786;2022-10-13T01:52:30;100876.94;;;7.72;90.80
74327;BME280;62745;51.060;13.786;2022-10-13T01:54:57;100868.69;;;7.75;90.14
74327;BME280;62745;51.060;13.786;2022-10-13T01:57:39;100870.66;;;7.73;91.28
74327;BME280;62745;51.060;13.786;2022-10-13T02:00:15;100870.28;;;7.68;90.61
74327;BME280;62745;51.060;13.786;2022-10-13T02:06:08;100872.47;;;7.72;92.08
74327;BME280;62745;51.060;13.786;2022-10-13T02:08:41;100874.25;;;7.64;92.00
74327;BME280;62745;51.060;13.786;2022-10-13T02:11:16;100862.78;;;7.63;91.91
74327;BME280;62745;51.060;13.786;2022-10-13T02:16:39;100863.66;;;7.72;92.08
74327;BME280;62745;51.060;13.786;2022-10-13T02:19:07;100869.94;;;7.63;91.41
74327;BME280;62745;51.060;13.786;2022-10-13T02:21:34;100865.38;;;7.55;91.63
74327;BME280;62745;51.060;13.786;2022-10-13T02:24:01;100863.97;;;7.69;90.31
74327;BME280;62745;51.060;13.786;2022-10-13T02:26:29;100863.63;;;7.64;91.29
74327;BME280;62745;51.060;13.786;2022-10-13T02:28:55;100859.47;;;7.61;91.07
74327;BME280;62745;51.060;13.786;2022-10-13T02:31:20;100856.91;;;7.51;91.03
74327;BME280;62745;51.060;13.786;2022-10-13T02:33:45;100859.41;;;7.53;90.68
74327;BME280;62745;51.060;13.786;2022-10-13T02:36:11;100855.81;;;7.62;91.80
74327;BME280;62745;51.060;13.786;2022-10-13T02:38:36;100855.47;;;7.57;92.18
74327;BME280;62745;51.060;13.786;2022-10-13T02:41:01;100856.66;;;7.63;91.96
74327;BME280;62745;51.060;13.786;2022-10-13T02:43:27;100848.59;;;7.54;90.58
74327;BME280;62745;51.060;13.786;2022-10-13T02:45:53;100854.41;;;7.50;91.02
74327;BME280;62745;51.060;13.786;2022-10-13T02:48:18;100854.47;;;7.58;92.42
74327;BME280;62745;51.060;13.786;2022-10-13T02:50:43;100862.63;;;7.65;91.67
74327;BME280;62745;51.060;13.786;2022-10-13T02:53:08;100854.75;;;7.55;91.29
74327;BME280;62745;51.060;13.786;2022-10-13T02:55:34;100849.59;;;7.53;91.26
74327;BME280;62745;51.060;13.786;2022-10-13T02:57:59;100847.94;;;7.52;91.70
74327;BME280;62745;51.060;13.786;2022-10-13T03:00:24;100846.09;;;7.53;91.24
74327;BME280;62745;51.060;13.786;2022-10-13T03:02:50;100856.28;;;7.58;92.93
74327;BME280;62745;51.060;13.786;2022-10-13T03:05:15;100848.75;;;7.79;91.68
74327;BME280;62745;51.060;13.786;2022-10-13T03:07:41;100850.34;;;8.06;90.95
74327;BME280;62745;51.060;13.786;2022-10-13T03:10:06;100852.16;;;8.05;90.24
74327;BME280;62745;51.060;13.786;2022-10-13T03:12:32;100848.09;;;7.85;91.28
74327;BME280;62745;51.060;13.786;2022-10-13T03:14:57;100852.06;;;7.81;91.01
74327;BME280;62745;51.060;13.786;2022-10-13T03:17:22;100855.47;;;7.91;91.71
74327;BME280;62745;51.060;13.786;2022-10-13T03:19:48;100853.09;;;7.88;91.13
74327;BME280;62745;51.060;13.786;2022-10-13T03:22:13;100850.44;;;7.88;91.35
74327;BME280;62745;51.060;13.786;2022-10-13T03:24:40;100848.25;;;7.83;91.85
74327;BME280;62745;51.060;13.786;2022-10-13T03:27:05;100845.00;;;7.64;91.39
74327;BME280;62745;51.060;13.786;2022-10-13T03:29:31;100847.84;;;7.62;92.29
74327;BME280;62745;51.060;13.786;2022-10-13T03:31:56;100840.94;;;7.51;92.59
74327;BME280;62745;51.060;13.786;2022-10-13T03:34:21;100837.09;;;7.46;93.00
74327;BME280;62745;51.060;13.786;2022-10-13T03:36:46;100846.00;;;7.37;91.78
74327;BME280;62745;51.060;13.786;2022-10-13T03:39:12;100842.16;;;7.31;92.54
74327;BME280;62745;51.060;13.786;2022-10-13T03:41:37;100840.44;;;7.22;92.97
74327;BME280;62745;51.060;13.786;2022-10-13T03:44:03;100844.78;;;7.23;93.58
74327;BME280;62745;51.060;13.786;2022-10-13T03:46:29;100838.34;;;7.34;93.50
74327;BME280;62745;51.060;13.786;2022-10-13T03:48:54;100843.31;;;7.29;93.34
74327;BME280;62745;51.060;13.786;2022-10-13T03:51:21;100841.81;;;7.26;93.31
74327;BME280;62745;51.060;13.786;2022-10-13T03:53:47;100840.66;;;7.29;93.00
74327;BME280;62745;51.060;13.786;2022-10-13T03:56:15;100832.72;;;7.37;91.92
74327;BME280;62745;51.060;13.786;2022-10-13T03:58:41;100845.56;;;7.41;92.20
74327;BME280;62745;51.060;13.786;2022-10-13T04:01:08;100847.75;;;7.46;92.52
74327;BME280;62745;51.060;13.786;2022-10-13T04:03:33;100850.13;;;7.57;93.10
74327;BME280;62745;51.060;13.786;2022-10-13T04:06:00;100851.34;;;7.71;92.70
74327;BME280;62745;51.060;13.786;2022-10-13T04:08:27;100843.91;;;7.74;91.53
74327;BME280;62745;51.060;13.786;2022-10-13T04:11:04;100841.41;;;7.73;91.97
74327;BME280;62745;51.060;13.786;2022-10-13T04:13:30;100839.06;;;7.70;92.60
74327;BME280;62745;51.060;13.786;2022-10-13T04:16:01;100840.41;;;7.74;92.03
74327;BME280;62745;51.060;13.786;2022-10-13T04:18:27;100838.22;;;7.69;92.52
74327;BME280;62745;51.060;13.786;2022-10-13T04:20:52;100838.59;;;7.74;92.25
74327;BME280;62745;51.060;13.786;2022-10-13T04:23:17;100834.97;;;7.83;92.58
74327;BME280;62745;51.060;13.786;2022-10-13T04:25:42;100837.53;;;8.01;91.67
74327;BME280;62745;51.060;13.786;2022-10-13T04:28:10;100826.34;;;7.90;90.65
74327;BME280;62745;51.060;13.786;2022-10-13T04:30:36;100828.47;;;7.86;90.91
74327;BME280;62745;51.060;13.786;2022-10-13T04:33:02;100835.47;;;7.87;91.28
74327;BME280;62745;51.060;13.786;2022-10-13T04:35:28;100825.97;;;7.84;91.95
74327;BME280;62745;51.060;13.786;2022-10-13T04:37:53;100824.81;;;7.87;91.25
74327;BME280;62745;51.060;13.786;2022-10-13T04:40:18;100830.56;;;8.08;90.74
74327;BME280;62745;51.060;13.786;2022-10-13T04:42:44;100839.03;;;8.04;89.97
74327;BME280;62745;51.060;13.786;2022-10-13T04:45:09;100831.03;;;8.04;90.51
74327;BME280;62745;51.060;13.786;2022-10-13T04:47:35;100824.06;;;8.03;89.25
74327;BME280;62745;51.060;13.786;2022-10-13T04:50:02;100831.03;;;8.04;90.45
74327;BME280;62745;51.060;13.786;2022-10-13T04:52:27;100827.72;;;8.02;90.78
74327;BME280;62745;51.060;13.786;2022-10-13T04:54:52;100816.56;;;7.98;91.50
74327;BME280;62745;51.060;13.786;2022-10-13T04:57:18;100820.16;;;8.23;90.00
74327;BME280;62745;51.060;13.786;2022-10-13T04:59:43;100820.44;;;8.12;90.28
74327;BME280;62745;51.060;13.786;2022-10-13T05:02:08;100820.22;;;8.05;89.85
74327;BME280;62745;51.060;13.786;2022-10-13T05:04:34;100816.25;;;8.01;91.25
74327;BME280;62745;51.060;13.786;2022-10-13T05:07:00;100809.47;;;8.07;90.22
74327;BME280;62745;51.060;13.786;2022-10-13T05:09:25;100806.81;;;8.15;90.32
74327;BME280;62745;51.060;13.786;2022-10-13T05:11:51;100804.13;;;8.15;90.09
74327;BME280;62745;51.060;13.786;2022-10-13T05:14:18;100803.31;;;8.14;89.32
74327;BME280;62745;51.060;13.786;2022-10-13T05:16:43;100803.66;;;8.20;90.83
74327;BME280;62745;51.060;13.786;2022-10-13T05:19:08;100805.63;;;8.18;90.53
74327;BME280;62745;51.060;13.786;2022-10-13T05:21:34;100800.31;;;8.09;90.48
74327;BME280;62745;51.060;13.786;2022-10-13T05:23:59;100809.28;;;8.17;90.51
74327;BME280;62745;51.060;13.786;2022-10-13T05:26:27;100810.34;;;8.24;90.29
74327;BME280;62745;51.060;13.786;2022-10-13T05:28:55;100809.78;;;8.20;90.24
74327;BME280;62745;51.060;13.786;2022-10-13T05:31:23;100803.34;;;8.31;90.57
74327;BME280;62745;51.060;13.786;2022-10-13T05:33:49;100791.16;;;8.20;90.76
74327;BME280;62745;51.060;13.786;2022-10-13T05:36:19;100788.72;;;8.27;89.11
74327;BME280;62745;51.060;13.786;2022-10-13T05:38:49;100796.34;;;8.30;90.49
74327;BME280;62745;51.060;13.786;2022-10-13T05:41:15;100791.41;;;8.43;90.02
74327;BME280;62745;51.060;13.786;2022-10-13T05:43:41;100782.06;;;8.31;89.60
74327;BME280;62745;51.060;13.786;2022-10-13T05:46:06;100783.88;;;8.30;90.18
74327;BME280;62745;51.060;13.786;2022-10-13T05:48:32;100787.38;;;8.31;89.91
74327;BME280;62745;51.060;13.786;2022-10-13T05:50:59;100778.94;;;8.43;90.45
74327;BME280;62745;51.060;13.786;2022-10-13T05:53:30;100779.09;;;8.42;89.45
74327;BME280;62745;51.060;13.786;2022-10-13T05:55:59;100774.28;;;8.46;89.67
74327;BME280;62745;51.060;13.786;2022-10-13T05:58:39;100781.44;;;8.61;89.68
74327;BME280;62745;51.060;13.786;2022-10-13T06:01:07;100794.41;;;8.56;89.67
74327;BME280;62745;51.060;13.786;2022-10-13T06:03:33;100796.94;;;8.58;89.31
74327;BME280;62745;51.060;13.786;2022-10-13T06:06:00;100797.75;;;8.58;89.26
74327;BME280;62745;51.060;13.786;2022-10-13T06:08:26;100798.41;;;8.68;89.63
74327;BME280;62745;51.060;13.786;2022-10-13T06:10:51;100790.75;;;8.65;89.62
74327;BME280;62745;51.060;13.786;2022-10-13T06:13:16;100789.41;;;8.69;90.12
74327;BME280;62745;51.060;13.786;2022-10-13T06:15:42;100787.09;;;8.74;89.29
74327;BME280;62745;51.060;13.786;2022-10-13T06:18:08;100789.25;;;8.87;89.71
74327;BME280;62745;51.060;13.786;2022-10-13T06:20:35;100791.25;;;8.93;89.49
74327;BME280;62745;51.060;13.786;2022-10-13T06:23:00;100791.75;;;8.89;88.82
74327;BME280;62745;51.060;13.786;2022-10-13T06:25:25;100785.25;;;8.83;88.82
74327;BME280;62745;51.060;13.786;2022-10-13T06:27:51;100792.06;;;8.86;89.22
74327;BME280;62745;51.060;13.786;2022-10-13T06:30:16;100793.56;;;8.88;89.03
74327;BME280;62745;51.060;13.786;2022-10-13T06:32:42;100790.41;;;8.85;89.19
74327;BME280;62745;51.060;13.786;2022-10-13T06:35:07;100796.06;;;8.98;89.37
74327;BME280;62745;51.060;13.786;2022-10-13T06:37:33;100792.72;;;9.04;89.54
74327;BME280;62745;51.060;13.786;2022-10-13T06:39:58;100790.44;;;8.93;88.86
74327;BME280;62745;51.060;13.786;2022-10-13T06:42:23;100794.91;;;8.92;88.25
74327;BME280;62745;51.060;13.786;2022-10-13T06:44:49;100807.25;;;8.93;87.88
74327;BME280;62745;51.060;13.786;2022-10-13T06:47:14;100793.56;;;8.96;87.78
74327;BME280;62745;51.060;13.786;2022-10-13T06:49:39;100805.56;;;9.00;89.02
74327;BME280;62745;51.060;13.786;2022-10-13T06:52:05;100807.72;;;9.05;88.61
74327;BME280;62745;51.060;13.786;2022-10-13T06:54:30;100796.38;;;9.03;88.86
74327;BME280;62745;51.060;13.786;2022-10-13T06:56:55;100809.38;;;9.14;89.34
74327;BME280;62745;51.060;13.786;2022-10-13T06:59:21;100813.38;;;9.26;88.59
74327;BME280;62745;51.060;13.786;2022-10-13T07:01:47;100815.34;;;9.41;87.94
74327;BME280;62745;51.060;13.786;2022-10-13T07:04:12;100824.81;;;9.43;88.28
74327;BME280;62745;51.060;13.786;2022-10-13T07:06:38;100820.16;;;9.37;88.29
74327;BME280;62745;51.060;13.786;2022-10-13T07:09:04;100830.13;;;9.51;87.66
74327;BME280;62745;51.060;13.786;2022-10-13T07:11:31;100825.84;;;9.81;87.72
74327;BME280;62745;51.060;13.786;2022-10-13T07:13:57;100835.28;;;10.00;87.00
74327;BME280;62745;51.060;13.786;2022-10-13T07:16:22;100829.22;;;10.06;86.91
74327;BME280;62745;51.060;13.786;2022-10-13T07:18:48;100833.91;;;10.12;85.03
74327;BME280;62745;51.060;13.786;2022-10-13T07:21:14;100838.69;;;10.25;84.34
74327;BME280;62745;51.060;13.786;2022-10-13T07:23:40;100827.06;;;10.41;84.79
74327;BME280;62745;51.060;13.786;2022-10-13T07:26:10;100828.03;;;10.48;82.05
74327;BME280;62745;51.060;13.786;2022-10-13T07:28:35;100831.59;;;10.63;82.47
74327;BME280;62745;51.060;13.786;2022-10-13T07:31:06;100815.13;;;10.74;81.74
74327;BME280;62745;51.060;13.786;2022-10-13T07:33:31;100817.22;;;10.87;80.93
74327;BME280;62745;51.060;13.786;2022-10-13T07:35:58;100817.06;;;11.03;79.93
74327;BME280;62745;51.060;13.786;2022-10-13T07:38:23;100813.38;;;11.04;79.65
74327;BME280;62745;51.060;13.786;2022-10-13T07:40:49;100811.69;;;11.26;78.82
74327;BME280;62745;51.060;13.786;2022-10-13T07:43:14;100813.44;;;11.34;78.00
74327;BME280;62745;51.060;13.786;2022-10-13T07:45:39;100810.75;;;11.34;77.80
74327;BME280;62745;51.060;13.786;2022-10-13T07:48:04;100800.44;;;11.45;78.17
74327;BME280;62745;51.060;13.786;2022-10-13T07:50:30;100796.44;;;11.56;77.25
74327;BME280;62745;51.060;13.786;2022-10-13T07:52:55;100787.31;;;11.65;77.14
74327;BME280;62745;51.060;13.786;2022-10-13T07:55:21;100798.22;;;11.93;76.55
74327;BME280;62745;51.060;13.786;2022-10-13T07:57:46;100793.47;;;12.10;74.79
74327;BME280;62745;51.060;13.786;2022-10-13T08:00:11;100789.16;;;12.30;75.27
74327;BME280;62745;51.060;13.786;2022-10-13T08:02:37;100784.13;;;12.63;73.78
74327;BME280;62745;51.060;13.786;2022-10-13T08:05:02;100780.16;;;12.81;72.84
74327;BME280;62745;51.060;13.786;2022-10-13T08:07:28;100780.78;;;12.83;71.80
74327;BME280;62745;51.060;13.786;2022-10-13T08:09:53;100774.06;;;12.72;72.49
74327;BME280;62745;51.060;13.786;2022-10-13T08:12:18;100780.34;;;12.79;71.63
74327;BME280;62745;51.060;13.786;2022-10-13T08:14:44;100775.53;;;12.96;72.65
74327;BME280;62745;51.060;13.786;2022-10-13T08:17:09;100774.09;;;13.00;71.73
74327;BME280;62745;51.060;13.786;2022-10-13T08:19:34;100766.19;;;12.92;72.28
74327;BME280;62745;51.060;13.786;2022-10-13T08:22:00;100766.16;;;12.85;71.98
74327;BME280;62745;51.060;13.786;2022-10-13T08:24:26;100765.31;;;12.85;72.62
74327;BME280;62745;51.060;13.786;2022-10-13T08:26:51;100753.91;;;12.76;72.31
74327;BME280;62745;51.060;13.786;2022-10-13T08:29:17;100772.78;;;12.89;72.17
74327;BME280;62745;51.060;13.786;2022-10-13T08:31:42;100766.09;;;13.07;71.66
74327;BME280;62745;51.060;13.786;2022-10-13T08:34:08;100764.84;;;13.31;71.36
74327;BME280;62745;51.060;13.786;2022-10-13T08:36:34;100762.47;;;13.49;69.84
74327;BME280;62745;51.060;13.786;2022-10-13T08:38:59;100750.81;;;13.76;69.15
74327;BME280;62745;51.060;13.786;2022-10-13T08:41:29;100756.16;;;13.63;69.42
74327;BME280;62745;51.060;13.786;2022-10-13T08:44:06;100752.03;;;13.67;69.20
74327;BME280;62745;51.060;13.786;2022-10-13T08:47:00;100752.00;;;14.15;68.21
74327;BME280;62745;51.060;13.786;2022-10-13T08:49:29;100743.47;;;13.98;68.07
74327;BME280;62745;51.060;13.786;2022-10-13T08:51:54;100745.63;;;14.29;67.37
74327;BME280;62745;51.060;13.786;2022-10-13T08:54:23;100749.97;;;14.37;67.43
74327;BME280;62745;51.060;13.786;2022-10-13T08:56:50;100731.81;;;14.65;66.04
74327;BME280;62745;51.060;13.786;2022-10-13T08:59:17;100734.44;;;14.39;66.61
74327;BME280;62745;51.060;13.786;2022-10-13T09:01:44;100731.59;;;14.54;66.14
74327;BME280;62745;51.060;13.786;2022-10-13T09:04:33;100734.69;;;14.44;66.52
74327;BME280;62745;51.060;13.786;2022-10-13T09:07:15;100744.44;;;14.45;67.05
74327;BME280;62745;51.060;13.786;2022-10-13T09:09:42;100732.03;;;14.64;66.29
74327;BME280;62745;51.060;13.786;2022-10-13T09:12:10;100725.59;;;14.98;65.40
74327;BME280;62745;51.060;13.786;2022-10-13T09:14:38;100716.75;;;15.49;64.18
74327;BME280;62745;51.060;13.786;2022-10-13T09:17:19;100723.09;;;15.74;63.33
74327;BME280;62745;51.060;13.786;2022-10-13T09:25:20;100717.63;;;16.25;61.36
74327;BME280;62745;51.060;13.786;2022-10-13T09:30:41;100714.16;;;16.75;60.02
74327;BME280;62745;51.060;13.786;2022-10-13T09:38:25;100706.03;;;16.81;61.02
74327;BME280;62745;51.060;13.786;2022-10-13T09:46:20;100697.00;;;17.31;58.33
74327;BME280;62745;51.060;13.786;2022-10-13T09:48:48;100700.19;;;17.76;57.48
74327;BME280;62745;51.060;13.786;2022-10-13T09:53:58;100697.09;;;18.32;56.51
74327;BME280;62745;51.060;13.786;2022-10-13T09:56:45;100683.88;;;18.66;55.67
74327;BME280;62745;51.060;13.786;2022-10-13T10:01:46;100682.44;;;18.75;55.55
74327;BME280;62745;51.060;13.786;2022-10-13T10:04:16;100692.13;;;18.83;55.85
74327;BME280;62745;51.060;13.786;2022-10-13T10:06:44;100685.63;;;19.19;54.57
74327;BME280;62745;51.060;13.786;2022-10-13T10:09:17;100681.22;;;19.30;54.05
74327;BME280;62745;51.060;13.786;2022-10-13T10:11:47;100688.81;;;18.92;54.75
74327;BME280;62745;51.060;13.786;2022-10-13T10:14:29;100677.75;;;18.94;54.65
74327;BME280;62745;51.060;13.786;2022-10-13T10:19:47;100669.13;;;19.09;55.00
74327;BME280;62745;51.060;13.786;2022-10-13T10:28:22;100657.81;;;19.64;52.94
74327;BME280;62745;51.060;13.786;2022-10-13T10:31:04;100659.69;;;19.92;52.54
74327;BME280;62745;51.060;13.786;2022-10-13T10:36:17;100652.88;;;19.61;52.72
74327;BME280;62745;51.060;13.786;2022-10-13T10:38:55;100654.69;;;19.83;52.78
74327;BME280;62745;51.060;13.786;2022-10-13T10:44:29;100659.44;;;20.38;50.75
74327;BME280;62745;51.060;13.786;2022-10-13T10:46:58;100651.50;;;20.03;51.25
74327;BME280;62745;51.060;13.786;2022-10-13T10:49:30;100650.25;;;19.94;51.03
74327;BME280;62745;51.060;13.786;2022-10-13T10:51:58;100651.00;;;19.90;51.70
74327;BME280;62745;51.060;13.786;2022-10-13T11:05:11;100625.59;;;19.96;51.25
74327;BME280;62745;51.060;13.786;2022-10-13T11:17:50;100603.31;;;19.77;52.22
74327;BME280;62745;51.060;13.786;2022-10-13T11:25:49;100586.13;;;20.94;49.10
74327;BME280;62745;51.060;13.786;2022-10-13T11:30:56;100580.63;;;21.11;50.18
74327;BME280;62745;51.060;13.786;2022-10-13T11:44:58;100552.72;;;20.93;49.25
74327;BME280;62745;51.060;13.786;2022-10-13T11:47:48;100551.38;;;20.52;50.26
74327;BME280;62745;51.060;13.786;2022-10-13T11:53:10;100545.00;;;20.63;50.58
74327;BME280;62745;51.060;13.786;2022-10-13T11:55:49;100544.94;;;20.80;49.26
74327;BME280;62745;51.060;13.786;2022-10-13T11:58:29;100548.66;;;20.96;48.74
74327;BME280;62745;51.060;13.786;2022-10-13T12:01:00;100549.13;;;21.10;48.26
74327;BME280;62745;51.060;13.786;2022-10-13T12:03:30;100544.31;;;21.17;48.45
74327;BME280;62745;51.060;13.786;2022-10-13T12:05:59;100543.78;;;21.42;47.36
74327;BME280;62745;51.060;13.786;2022-10-13T12:08:26;100539.59;;;21.88;46.33
74327;BME280;62745;51.060;13.786;2022-10-13T12:10:53;100535.81;;;21.94;46.23
74327;BME280;62745;51.060;13.786;2022-10-13T12:13:32;100527.53;;;21.47;46.91
74327;BME280;62745;51.060;13.786;2022-10-13T12:16:05;100529.72;;;21.50;47.40
74327;BME280;62745;51.060;13.786;2022-10-13T12:18:33;100533.25;;;21.23;48.00
74327;BME280;62745;51.060;13.786;2022-10-13T12:21:09;100528.31;;;20.98;48.29
74327;BME280;62745;51.060;13.786;2022-10-13T12:23:35;100522.28;;;20.69;48.47
74327;BME280;62745;51.060;13.786;2022-10-13T12:26:01;100523.84;;;20.43;49.23
74327;BME280;62745;51.060;13.786;2022-10-13T12:29:23;100519.81;;;20.29;50.81
74327;BME280;62745;51.060;13.786;2022-10-13T12:31:47;100526.56;;;20.43;50.24
74327;BME280;62745;51.060;13.786;2022-10-13T12:34:27;100522.50;;;20.46;49.57
74327;BME280;62745;51.060;13.786;2022-10-13T12:36:59;100526.03;;;20.47;49.44
74327;BME280;62745;51.060;13.786;2022-10-13T12:39:27;100522.53;;;20.12;51.12
74327;BME280;62745;51.060;13.786;2022-10-13T12:41:54;100514.16;;;20.14;51.18
74327;BME280;62745;51.060;13.786;2022-10-13T12:44:25;100512.50;;;20.13;50.67
74327;BME280;62745;51.060;13.786;2022-10-13T12:46:53;100526.50;;;20.22;50.25
74327;BME280;62745;51.060;13.786;2022-10-13T12:49:27;100522.53;;;20.12;50.58
74327;BME280;62745;51.060;13.786;2022-10-13T12:52:03;100523.28;;;20.08;50.00
74327;BME280;62745;51.060;13.786;2022-10-13T12:54:31;100522.94;;;20.21;50.90
74327;BME280;62745;51.060;13.786;2022-10-13T12:56:59;100512.41;;;20.25;50.62
74327;BME280;62745;51.060;13.786;2022-10-13T12:59:28;100513.28;;;20.47;50.37
74327;BME280;62745;51.060;13.786;2022-10-13T13:01:57;100517.75;;;20.53;49.61
74327;BME280;62745;51.060;13.786;2022-10-13T13:06:54;100515.09;;;20.58;49.00
74327;BME280;62745;51.060;13.786;2022-10-13T13:09:33;100515.19;;;20.47;49.59
74327;BME280;62745;51.060;13.786;2022-10-13T13:12:25;100512.06;;;20.55;49.90
74327;BME280;62745;51.060;13.786;2022-10-13T13:14:51;100513.41;;;20.35;50.09
74327;BME280;62745;51.060;13.786;2022-10-13T13:19:46;100510.31;;;20.10;50.63
74327;BME280;62745;51.060;13.786;2022-10-13T13:22:13;100509.81;;;19.96;50.93
74327;BME280;62745;51.060;13.786;2022-10-13T13:24:39;100510.88;;;19.78;52.10
74327;BME280;62745;51.060;13.786;2022-10-13T13:27:25;100503.56;;;19.79;52.24
74327;BME280;62745;51.060;13.786;2022-10-13T13:29:53;100500.28;;;19.77;53.31
74327;BME280;62745;51.060;13.786;2022-10-13T13:32:20;100502.94;;;19.72;53.56
74327;BME280;62745;51.060;13.786;2022-10-13T13:34:47;100497.75;;;19.70;53.23
74327;BME280;62745;51.060;13.786;2022-10-13T13:37:22;100497.44;;;19.67;53.75
74327;BME280;62745;51.060;13.786;2022-10-13T13:39:49;100503.09;;;19.65;54.25
74327;BME280;62745;51.060;13.786;2022-10-13T13:42:14;100505.84;;;19.53;53.93
74327;BME280;62745;51.060;13.786;2022-10-13T13:44:40;100501.06;;;19.44;53.47
74327;BME280;62745;51.060;13.786;2022-10-13T13:47:19;100501.06;;;18.99;52.34
74327;BME280;62745;51.060;13.786;2022-10-13T13:49:45;100501.09;;;18.87;52.93
74327;BME280;62745;51.060;13.786;2022-10-13T13:52:11;100506.31;;;18.53;54.33
74327;BME280;62745;51.060;13.786;2022-10-13T13:54:36;100498.59;;;18.33;54.57
74327;BME280;62745;51.060;13.786;2022-10-13T13:57:02;100496.91;;;18.44;54.89
74327;BME280;62745;51.060;13.786;2022-10-13T13:59:27;100494.34;;;18.49;54.70
74327;BME280;62745;51.060;13.786;2022-10-13T14:01:52;100489.28;;;18.29;55.59
74327;BME280;62745;51.060;13.786;2022-10-13T14:04:17;100494.44;;;18.43;55.57
74327;BME280;62745;51.060;13.786;2022-10-13T14:06:43;100492.44;;;18.50;55.47
74327;BME280;62745;51.060;13.786;2022-10-13T14:09:08;100483.94;;;18.58;55.10
74327;BME280;62745;51.060;13.786;2022-10-13T14:11:33;100488.63;;;18.86;54.81
74327;BME280;62745;51.060;13.786;2022-10-13T14:13:59;100479.59;;;18.97;55.38
74327;BME280;62745;51.060;13.786;2022-10-13T14:16:26;100484.28;;;18.85;54.30
74327;BME280;62745;51.060;13.786;2022-10-13T14:18:52;100482.19;;;19.04;54.16
74327;BME280;62745;51.060;13.786;2022-10-13T14:21:17;100471.34;;;19.04;54.33
74327;BME280;62745;51.060;13.786;2022-10-13T14:23:42;100472.81;;;19.40;52.90
74327;BME280;62745;51.060;13.786;2022-10-13T14:26:11;100456.38;;;19.46;53.49
74327;BME280;62745;51.060;13.786;2022-10-13T14:28:39;100459.72;;;19.82;51.66
74327;BME280;62745;51.060;13.786;2022-10-13T14:31:05;100465.81;;;19.72;51.48
74327;BME280;62745;51.060;13.786;2022-10-13T14:33:31;100455.59;;;19.79;51.99